Time;durP1;ratioP1;P1;durP2;ratioP2;P2;SDS_P1;SDS_P2;PMS_P1;PMS_P2;Temp;Humidity;BMP_temperature;BMP_pressure;BME280_temperature;BME280_humidity;BME280_pressure;Samples;Min_cycle;Max_cycle;Signal;HPM_P1;HPM_P2
2023/10/20 00:01:00;;;;;;;3.60;1.38;;;9.00;99.90;;;;;;5078397;28;20035;-67
2023/10/20 00:03:26;;;;;;;5.05;1.92;;;9.00;99.90;;;;;;5112289;27;20066;-66
2023/10/20 00:05:51;;;;;;;4.60;1.63;;;9.00;99.90;;;;;;5091276;28;20051;-66
2023/10/20 00:08:17;;;;;;;11.98;2.78;;;9.00;99.90;;;;;;5090570;28;20542;-66
2023/10/20 00:10:42;;;;;;;4.28;3.35;;;8.90;99.90;;;;;;5093757;28;20421;-66
2023/10/20 00:13:09;;;;;;;6.60;2.63;;;8.90;99.90;;;;;;5085198;28;20040;-66
2023/10/20 00:15:35;;;;;;;6.30;2.50;;;8.90;99.90;;;;;;5083916;27;20067;-67
2023/10/20 00:18:02;;;;;;;3.40;1.77;;;8.90;99.90;;;;;;5122541;27;20043;-68
2023/10/20 00:20:28;;;;;;;1.70;1.60;;;8.90;99.90;;;;;;5094138;28;20470;-66
2023/10/20 00:22:54;;;;;;;11.45;2.00;;;8.90;99.90;;;;;;5078405;28;20375;-67
2023/10/20 00:25:19;;;;;;;4.35;2.78;;;8.90;99.90;;;;;;5125536;27;20042;-67
2023/10/20 00:27:45;;;;;;;3.03;2.22;;;8.90;99.90;;;;;;5090506;28;20176;-67
2023/10/20 00:30:11;;;;;;;6.38;1.88;;;8.90;99.90;;;;;;5086744;28;20124;-67
2023/10/20 00:32:40;;;;;;;1.75;1.05;;;8.90;99.90;;;;;;5091232;28;20039;-67
2023/10/20 00:35:09;;;;;;;2.28;2.08;;;8.80;99.90;;;;;;5085353;28;20051;-67
2023/10/20 00:37:35;;;;;;;8.60;1.52;;;8.80;99.90;;;;;;5083652;28;20043;-67
2023/10/20 00:40:00;;;;;;;5.90;3.35;;;8.80;99.90;;;;;;5090189;28;20043;-69
2023/10/20 00:42:26;;;;;;;2.85;2.03;;;8.90;99.90;;;;;;5088046;28;20054;-67
2023/10/20 00:44:53;;;;;;;3.22;1.63;;;8.80;99.90;;;;;;5088831;28;20068;-67
2023/10/20 00:47:20;;;;;;;9.57;2.53;;;8.80;99.90;;;;;;5068535;28;20091;-68
2023/10/20 00:49:45;;;;;;;4.25;1.67;;;8.80;99.90;;;;;;5087818;28;20559;-66
2023/10/20 00:52:14;;;;;;;4.82;1.73;;;8.80;99.90;;;;;;5091258;28;20085;-67
2023/10/20 00:54:44;;;;;;;1.55;1.23;;;8.80;99.90;;;;;;5092611;28;20043;-66
2023/10/20 00:57:11;;;;;;;1.80;0.98;;;8.80;99.90;;;;;;5118934;27;20044;-68
2023/10/20 00:59:37;;;;;;;4.32;1.95;;;8.80;99.90;;;;;;5083571;28;20505;-65
2023/10/20 01:02:03;;;;;;;9.63;3.17;;;8.80;99.90;;;;;;5079791;28;20119;-67
2023/10/20 01:04:28;;;;;;;3.05;1.63;;;8.80;99.90;;;;;;5125059;27;20474;-67
2023/10/20 01:06:54;;;;;;;6.28;3.50;;;8.80;99.90;;;;;;5082755;28;20050;-69
2023/10/20 01:09:27;;;;;;;2.08;1.60;;;8.80;99.90;;;;;;5089126;28;20526;-68
2023/10/20 01:11:53;;;;;;;1.25;1.02;;;8.80;99.90;;;;;;5083816;28;20070;-68
2023/10/20 01:14:19;;;;;;;6.53;2.13;;;8.80;99.90;;;;;;5092952;28;20044;-66
2023/10/20 01:16:45;;;;;;;1.10;1.05;;;8.70;99.90;;;;;;5087015;28;20042;-67
2023/10/20 01:19:11;;;;;;;3.45;2.40;;;8.80;99.90;;;;;;5092269;28;20414;-67
2023/10/20 01:21:37;;;;;;;1.45;1.40;;;8.80;99.90;;;;;;5087709;28;20242;-67
2023/10/20 01:24:04;;;;;;;5.63;2.58;;;8.70;99.90;;;;;;5086839;28;20418;-68
2023/10/20 01:26:31;;;;;;;0.85;0.85;;;8.70;99.90;;;;;;5085963;28;20051;-66
2023/10/20 01:28:56;;;;;;;2.55;1.77;;;8.70;99.90;;;;;;5125015;27;20043;-66
2023/10/20 01:31:25;;;;;;;18.13;1.48;;;8.70;99.90;;;;;;5090062;28;20039;-68
2023/10/20 01:33:51;;;;;;;6.55;1.35;;;8.70;99.90;;;;;;5088240;28;20047;-68
2023/10/20 01:36:16;;;;;;;2.22;1.17;;;8.70;99.90;;;;;;5083525;28;20079;-66
2023/10/20 01:38:42;;;;;;;3.10;2.13;;;8.70;99.90;;;;;;5088260;28;20142;-70
2023/10/20 01:41:08;;;;;;;4.32;2.80;;;8.70;99.90;;;;;;5078549;28;20118;-66
2023/10/20 01:43:34;;;;;;;4.18;2.00;;;8.70;99.90;;;;;;5086029;28;20047;-68
2023/10/20 01:46:03;;;;;;;3.03;1.63;;;8.70;99.90;;;;;;5087616;28;20043;-67
2023/10/20 01:48:30;;;;;;;2.78;2.45;;;8.70;99.90;;;;;;5090071;28;20044;-67
2023/10/20 01:50:56;;;;;;;2.22;1.70;;;8.70;99.90;;;;;;5090500;27;20082;-67
2023/10/20 01:53:22;;;;;;;9.40;2.65;;;8.70;99.90;;;;;;5090053;28;20410;-67
2023/10/20 01:55:51;;;;;;;1.13;1.02;;;8.70;99.90;;;;;;5123102;27;20509;-68
2023/10/20 01:58:20;;;;;;;1.95;1.77;;;8.70;99.90;;;;;;5086995;28;20081;-67
2023/10/20 02:00:50;;;;;;;3.53;2.38;;;8.70;99.90;;;;;;5088121;28;20595;-68
2023/10/20 02:03:16;;;;;;;3.97;2.28;;;8.60;99.90;;;;;;5084839;28;20040;-67
2023/10/20 02:05:41;;;;;;;4.35;3.95;;;8.60;99.90;;;;;;5087550;28;20525;-67
2023/10/20 02:08:10;;;;;;;7.60;1.80;;;8.70;99.90;;;;;;5083676;28;20114;-67
2023/10/20 02:10:36;;;;;;;16.88;3.25;;;8.70;99.90;;;;;;5091052;28;20035;-66
2023/10/20 02:13:02;;;;;;;6.15;1.75;;;8.70;99.90;;;;;;5084588;28;20047;-68
2023/10/20 02:15:29;;;;;;;4.30;1.50;;;8.70;99.90;;;;;;5077929;28;20054;-67
2023/10/20 02:17:56;;;;;;;3.63;2.47;;;8.60;99.90;;;;;;5117134;27;20084;-67
2023/10/20 02:20:23;;;;;;;1.60;1.50;;;8.60;99.90;;;;;;5089087;28;20076;-68
2023/10/20 02:22:52;;;;;;;5.45;3.05;;;8.60;99.90;;;;;;5079880;28;20130;-68
2023/10/20 02:25:19;;;;;;;3.35;0.90;;;8.70;99.90;;;;;;5075296;28;20379;-67
2023/10/20 02:27:47;;;;;;;6.93;1.95;;;8.60;99.90;;;;;;5081144;28;20043;-69
2023/10/20 02:30:14;;;;;;;2.88;1.27;;;8.60;99.90;;;;;;5122612;28;20443;-67
2023/10/20 02:32:39;;;;;;;4.00;2.00;;;8.60;99.90;;;;;;5084469;28;20078;-70
2023/10/20 02:35:06;;;;;;;3.95;2.78;;;8.60;99.90;;;;;;5091432;28;20434;-68
2023/10/20 02:37:32;;;;;;;2.40;1.67;;;8.60;99.90;;;;;;5089042;28;20078;-68
2023/10/20 02:39:57;;;;;;;13.23;5.05;;;8.60;99.90;;;;;;5091890;28;20067;-67
2023/10/20 02:42:23;;;;;;;3.33;2.25;;;8.60;99.90;;;;;;5082088;28;20047;-68
2023/10/20 02:44:48;;;;;;;3.13;1.48;;;8.50;99.90;;;;;;5090333;28;20506;-66
2023/10/20 02:47:14;;;;;;;3.55;3.22;;;8.60;99.90;;;;;;5088224;28;20558;-67
2023/10/20 02:49:40;;;;;;;2.72;1.23;;;8.60;99.90;;;;;;5085812;28;20028;-66
2023/10/20 02:52:07;;;;;;;3.03;2.22;;;8.60;99.90;;;;;;5076720;28;20517;-68
2023/10/20 02:54:34;;;;;;;1.05;0.95;;;8.50;99.90;;;;;;5090002;28;20124;-67
2023/10/20 02:56:59;;;;;;;4.95;2.45;;;8.50;99.90;;;;;;5088583;28;20486;-67
2023/10/20 02:59:25;;;;;;;4.18;3.25;;;8.50;99.90;;;;;;5086121;28;20050;-67
2023/10/20 03:01:54;;;;;;;2.15;1.75;;;8.50;99.90;;;;;;5084109;28;20471;-67
2023/10/20 03:04:19;;;;;;;5.40;3.17;;;8.50;99.90;;;;;;5117438;28;20093;-66
2023/10/20 03:06:45;;;;;;;14.02;2.92;;;8.50;99.90;;;;;;5072337;28;20485;-67
2023/10/20 03:09:13;;;;;;;4.30;2.03;;;8.50;99.90;;;;;;5117651;28;20394;-67
2023/10/20 03:11:39;;;;;;;4.20;2.50;;;8.50;99.90;;;;;;5090637;28;20045;-67
2023/10/20 03:14:05;;;;;;;3.08;1.27;;;8.50;99.90;;;;;;5092342;28;20048;-66
2023/10/20 03:16:31;;;;;;;5.57;2.35;;;8.50;99.90;;;;;;5084730;28;20032;-67
2023/10/20 03:18:56;;;;;;;5.38;2.28;;;8.50;99.90;;;;;;5122029;28;20061;-66
2023/10/20 03:21:23;;;;;;;3.83;1.42;;;8.40;99.90;;;;;;5087444;28;20059;-68
2023/10/20 03:23:48;;;;;;;3.55;2.35;;;8.40;99.90;;;;;;5086468;28;20444;-68
2023/10/20 03:26:14;;;;;;;3.35;1.58;;;8.40;99.90;;;;;;5084323;28;20127;-66
2023/10/20 03:28:40;;;;;;;4.15;1.08;;;8.40;99.90;;;;;;5088818;28;20038;-69
2023/10/20 03:31:06;;;;;;;4.65;1.67;;;8.40;99.90;;;;;;5099804;28;20537;-67
2023/10/20 03:33:32;;;;;;;2.42;2.03;;;8.40;99.90;;;;;;5121993;28;20044;-66
2023/10/20 03:36:02;;;;;;;4.47;2.05;;;8.40;99.90;;;;;;5087418;28;21104;-68
2023/10/20 03:38:28;;;;;;;0.88;0.88;;;8.40;99.90;;;;;;5085946;28;20051;-67
2023/10/20 03:40:54;;;;;;;2.47;1.90;;;8.40;99.90;;;;;;5084216;28;20474;-66
2023/10/20 03:43:21;;;;;;;3.03;1.75;;;8.40;99.90;;;;;;5081959;28;20501;-67
2023/10/20 03:45:51;;;;;;;4.15;1.95;;;8.40;99.90;;;;;;5122865;27;20122;-66
2023/10/20 03:48:19;;;;;;;3.65;1.85;;;8.40;99.90;;;;;;5124223;27;20039;-69
2023/10/20 03:50:47;;;;;;;3.38;1.40;;;8.40;99.90;;;;;;5089909;28;20031;-68
2023/10/20 03:53:22;;;;;;;4.63;1.65;;;8.40;99.90;;;;;;5122024;27;20123;-67
2023/10/20 03:56:06;;;;;;;2.08;1.67;;;8.40;99.90;;;;;;5083103;28;20079;-67
2023/10/20 03:58:33;;;;;;;6.13;1.55;;;8.40;99.90;;;;;;5078536;28;20083;-68
2023/10/20 04:01:02;;;;;;;4.97;3.15;;;8.40;99.90;;;;;;5117827;27;20054;-66
2023/10/20 04:03:32;;;;;;;3.05;2.65;;;8.40;99.90;;;;;;5071438;28;20039;-68
2023/10/20 04:05:58;;;;;;;10.50;2.67;;;8.40;99.90;;;;;;5124500;27;20035;-66
2023/10/20 04:08:24;;;;;;;2.47;1.20;;;8.30;99.90;;;;;;5091922;28;20111;-67
2023/10/20 04:10:57;;;;;;;3.92;2.92;;;8.30;99.90;;;;;;5091935;28;20039;-66
2023/10/20 04:13:23;;;;;;;2.55;2.35;;;8.30;99.90;;;;;;5087489;27;20404;-66
2023/10/20 04:15:49;;;;;;;7.30;2.58;;;8.30;99.90;;;;;;5087485;28;20055;-67
2023/10/20 04:18:16;;;;;;;4.05;1.13;;;8.30;99.90;;;;;;5094660;28;20482;-66
2023/10/20 04:20:42;;;;;;;1.13;1.08;;;8.40;99.90;;;;;;5090864;28;20028;-68
2023/10/20 04:23:08;;;;;;;1.88;1.38;;;8.40;99.90;;;;;;5082956;27;20076;-67
2023/10/20 04:25:52;;;;;;;3.95;1.52;;;8.30;99.90;;;;;;5122783;27;20109;-67
2023/10/20 04:28:20;;;;;;;7.85;1.80;;;8.40;99.90;;;;;;5091368;28;20048;-68
2023/10/20 04:42:43;;;;;;;3.38;1.42;;;8.30;99.90;;;;;;5115528;27;20040;-65
2023/10/20 04:47:48;;;;;;;3.33;1.65;;;8.30;99.90;;;;;;5087384;28;20044;-65
2023/10/20 04:56:21;;;;;;;1.90;1.20;;;8.30;99.90;;;;;;5094180;28;20653;-66
2023/10/20 04:58:14;;;;;;;3.97;2.30;;;8.30;99.90;;;;;;5084255;28;20393;-68
2023/10/20 05:00:41;;;;;;;5.53;1.30;;;8.30;99.90;;;;;;5082084;28;20040;-67
2023/10/20 05:03:22;;;;;;;7.53;3.42;;;8.30;99.90;;;;;;5085187;28;20039;-67
2023/10/20 05:05:58;;;;;;;0.63;0.63;;;8.20;99.90;;;;;;5088917;28;20587;-68
2023/10/20 05:08:24;;;;;;;2.72;1.73;;;8.30;99.90;;;;;;5087164;28;20276;-68
2023/10/20 05:10:50;;;;;;;6.00;1.65;;;8.30;99.90;;;;;;5089780;28;20126;-66
2023/10/20 05:13:16;;;;;;;9.50;2.75;;;8.30;99.90;;;;;;5087444;28;20135;-68
2023/10/20 05:15:44;;;;;;;6.20;2.83;;;8.20;99.90;;;;;;5117067;27;20051;-67
2023/10/20 05:18:14;;;;;;;5.05;1.45;;;8.20;99.90;;;;;;5116594;27;20047;-67
2023/10/20 05:20:41;;;;;;;2.15;0.93;;;8.20;99.90;;;;;;5084259;28;20379;-67
2023/10/20 05:23:07;;;;;;;2.72;1.23;;;8.30;99.90;;;;;;5121069;27;20492;-66
2023/10/20 05:25:33;;;;;;;2.92;2.30;;;8.30;99.90;;;;;;5082540;28;20044;-66
2023/10/20 05:28:02;;;;;;;7.65;2.88;;;8.30;99.90;;;;;;5080558;28;20054;-65
2023/10/20 05:30:28;;;;;;;0.60;0.60;;;8.20;99.90;;;;;;5083036;28;20068;-66
2023/10/20 05:32:54;;;;;;;0.60;0.60;;;8.30;99.90;;;;;;5085524;27;20132;-67
2023/10/20 05:35:19;;;;;;;4.50;4.10;;;8.20;99.90;;;;;;5086558;28;20050;-67
2023/10/20 05:37:45;;;;;;;3.58;1.63;;;8.20;99.90;;;;;;5082403;28;20500;-67
2023/10/20 05:40:13;;;;;;;1.95;1.85;;;8.20;99.90;;;;;;5090051;28;20054;-65
2023/10/20 05:42:39;;;;;;;4.25;2.08;;;8.20;99.90;;;;;;5086304;27;20042;-65
2023/10/20 05:45:17;;;;;;;9.02;1.90;;;8.20;99.90;;;;;;5084902;27;20633;-68
2023/10/20 05:47:43;;;;;;;5.25;2.50;;;8.20;99.90;;;;;;5083520;28;20051;-68
2023/10/20 05:50:09;;;;;;;11.45;2.45;;;8.20;99.90;;;;;;5090258;28;20036;-66
2023/10/20 05:52:35;;;;;;;5.07;2.15;;;8.20;99.90;;;;;;5091538;28;20368;-68
2023/10/20 05:55:03;;;;;;;7.88;4.15;;;8.20;99.90;;;;;;5072966;28;20474;-65
2023/10/20 05:57:29;;;;;;;1.45;1.35;;;8.20;99.90;;;;;;5115730;27;20398;-67
2023/10/20 05:59:55;;;;;;;1.35;1.25;;;8.20;99.90;;;;;;5069097;28;20111;-66
2023/10/20 06:02:21;;;;;;;1.88;1.20;;;8.20;99.90;;;;;;5119272;27;20596;-66
2023/10/20 06:04:46;;;;;;;2.72;2.08;;;8.20;99.90;;;;;;5074127;28;20122;-66
2023/10/20 06:07:12;;;;;;;1.35;1.33;;;8.10;99.90;;;;;;5085871;28;20138;-66
2023/10/20 06:09:38;;;;;;;4.05;2.55;;;8.20;99.90;;;;;;5082547;28;20075;-66
2023/10/20 06:12:07;;;;;;;4.40;2.10;;;8.10;99.90;;;;;;5083624;28;20056;-65
2023/10/20 06:14:32;;;;;;;3.05;1.83;;;8.10;99.90;;;;;;5117953;27;20180;-66
2023/10/20 06:16:58;;;;;;;7.60;2.38;;;8.10;99.90;;;;;;5116782;27;20550;-66
2023/10/20 06:19:24;;;;;;;3.92;1.25;;;8.10;99.90;;;;;;5090544;28;20122;-66
2023/10/20 06:21:50;;;;;;;8.90;2.17;;;8.10;99.90;;;;;;5089233;28;20052;-66
2023/10/20 06:24:16;;;;;;;2.70;1.02;;;8.10;99.90;;;;;;5093075;28;20032;-68
2023/10/20 06:26:42;;;;;;;2.75;1.90;;;8.10;99.90;;;;;;5087897;28;20379;-68
2023/10/20 06:31:48;;;;;;;2.00;1.52;;;8.10;99.90;;;;;;5087231;28;20096;-68
2023/10/20 06:34:23;;;;;;;6.97;1.27;;;8.10;99.90;;;;;;5086083;28;20039;-67
2023/10/20 06:36:51;;;;;;;1.50;1.00;;;8.00;99.90;;;;;;5110473;27;21207;-66
2023/10/20 06:39:20;;;;;;;4.85;1.95;;;8.10;99.90;;;;;;5117617;28;20041;-67
2023/10/20 06:41:47;;;;;;;2.35;0.77;;;8.10;99.90;;;;;;5080368;28;20281;-66
2023/10/20 06:44:13;;;;;;;2.10;1.58;;;8.10;99.90;;;;;;5085159;28;20043;-65
2023/10/20 06:46:38;;;;;;;1.05;0.95;;;8.10;99.90;;;;;;5082230;28;20555;-67
2023/10/20 06:49:05;;;;;;;4.22;1.77;;;8.00;99.90;;;;;;5081179;28;20359;-69
2023/10/20 06:51:31;;;;;;;2.75;2.10;;;8.00;99.90;;;;;;5086971;28;20050;-66
2023/10/20 06:53:56;;;;;;;2.85;2.13;;;8.00;99.90;;;;;;5085719;28;21116;-67
2023/10/20 06:56:22;;;;;;;5.30;0.85;;;8.00;99.90;;;;;;5082907;28;20048;-66
2023/10/20 06:58:48;;;;;;;2.05;1.58;;;8.00;99.90;;;;;;5085234;28;20035;-66
2023/10/20 07:01:13;;;;;;;0.90;0.82;;;8.00;99.90;;;;;;5080817;28;20036;-66
2023/10/20 07:03:39;;;;;;;0.93;0.93;;;8.00;99.90;;;;;;5079394;28;20394;-68
2023/10/20 07:06:09;;;;;;;3.85;1.73;;;8.00;99.90;;;;;;5079731;28;20484;-67
2023/10/20 07:08:34;;;;;;;0.85;0.85;;;8.00;99.90;;;;;;5120239;28;20051;-66
2023/10/20 07:11:02;;;;;;;2.42;0.85;;;8.00;99.90;;;;;;5088550;27;20040;-66
2023/10/20 07:13:27;;;;;;;1.95;1.60;;;8.00;99.90;;;;;;5085062;27;20047;-66
2023/10/20 07:15:56;;;;;;;1.75;1.05;;;8.00;99.90;;;;;;5084248;28;22944;-67
2023/10/20 07:18:22;;;;;;;1.80;1.45;;;8.00;99.90;;;;;;5118741;27;20044;-67
2023/10/20 07:20:47;;;;;;;3.42;1.02;;;8.00;99.90;;;;;;5086399;27;20059;-66
2023/10/20 07:23:13;;;;;;;1.35;0.95;;;8.00;99.90;;;;;;5089531;27;20035;-67
2023/10/20 07:25:38;;;;;;;1.33;0.88;;;8.00;99.90;;;;;;5126235;27;20157;-68
2023/10/20 07:28:04;;;;;;;1.60;1.20;;;8.00;99.90;;;;;;5095849;28;20036;-66
2023/10/20 07:30:30;;;;;;;2.42;1.85;;;8.00;99.90;;;;;;5089681;28;20178;-70
2023/10/20 07:32:57;;;;;;;3.47;1.73;;;8.00;99.90;;;;;;5125612;27;20043;-66
2023/10/20 07:35:22;;;;;;;13.25;1.98;;;8.00;99.90;;;;;;5113676;28;20073;-67
2023/10/20 07:37:49;;;;;;;0.40;0.40;;;7.90;99.90;;;;;;5090167;28;20079;-68
2023/10/20 07:40:14;;;;;;;1.10;1.00;;;7.90;99.90;;;;;;5095307;28;20475;-66
2023/10/20 07:42:40;;;;;;;2.75;1.02;;;8.00;99.90;;;;;;5127569;27;20070;-68
2023/10/20 07:45:10;;;;;;;1.58;0.68;;;8.00;99.90;;;;;;5095575;28;20088;-70
2023/10/20 07:47:36;;;;;;;0.20;0.20;;;7.90;99.90;;;;;;5092612;28;20043;-65
2023/10/20 07:50:02;;;;;;;0.82;0.80;;;8.00;99.90;;;;;;5094372;28;20062;-67
2023/10/20 07:52:28;;;;;;;0.40;0.40;;;8.00;99.90;;;;;;5092147;28;20039;-66
2023/10/20 07:54:54;;;;;;;4.78;1.05;;;8.00;99.90;;;;;;5088872;28;20069;-65
2023/10/20 07:57:20;;;;;;;1.30;1.17;;;8.00;99.90;;;;;;5092387;28;20043;-66
2023/10/20 07:59:46;;;;;;;0.70;0.70;;;8.00;99.90;;;;;;5094438;28;20034;-65
2023/10/20 08:02:12;;;;;;;0.82;0.82;;;8.00;99.90;;;;;;5093154;28;20413;-66
2023/10/20 08:04:40;;;;;;;2.08;1.20;;;8.00;99.90;;;;;;5093996;28;20028;-67
2023/10/20 08:07:06;;;;;;;1.17;1.08;;;8.00;99.90;;;;;;5089944;28;20408;-66
2023/10/20 08:09:32;;;;;;;8.68;3.97;;;8.00;99.90;;;;;;5092253;28;20050;-65
2023/10/20 08:11:59;;;;;;;0.73;0.57;;;8.00;99.90;;;;;;5081385;28;20036;-65
2023/10/20 08:14:26;;;;;;;1.63;1.52;;;8.00;99.90;;;;;;5094816;28;20058;-65
2023/10/20 08:16:52;;;;;;;2.40;0.80;;;8.00;99.90;;;;;;5090347;28;20436;-65
2023/10/20 08:19:17;;;;;;;1.75;0.88;;;8.00;99.90;;;;;;5091848;27;20035;-65
2023/10/20 08:21:43;;;;;;;0.30;0.30;;;8.00;99.90;;;;;;5083809;28;20084;-65
2023/10/20 08:24:10;;;;;;;1.55;0.40;;;8.00;99.90;;;;;;5090092;27;20221;-66
2023/10/20 08:26:36;;;;;;;0.80;0.80;;;8.00;99.90;;;;;;5092845;28;20043;-64
2023/10/20 08:29:02;;;;;;;1.10;0.90;;;8.00;99.90;;;;;;5094112;28;20044;-68
2023/10/20 08:31:28;;;;;;;0.40;0.35;;;8.00;99.90;;;;;;5126960;27;20402;-65
2023/10/20 08:33:53;;;;;;;0.98;0.75;;;8.00;99.90;;;;;;5093215;28;20039;-66
2023/10/20 08:36:21;;;;;;;2.03;0.85;;;8.00;99.90;;;;;;5093736;28;20047;-67
2023/10/20 08:38:51;;;;;;;0.68;0.30;;;8.00;99.90;;;;;;5091069;28;20482;-65
2023/10/20 08:41:21;;;;;;;0.15;0.15;;;8.00;99.90;;;;;;5092537;28;20048;-66
2023/10/20 08:43:48;;;;;;;2.13;0.60;;;8.00;99.90;;;;;;5093774;28;20050;-66
2023/10/20 08:46:16;;;;;;;1.25;0.65;;;8.00;99.90;;;;;;5112033;28;20066;-65
2023/10/20 08:48:44;;;;;;;2.42;1.13;;;8.00;99.90;;;;;;5092864;28;20222;-66
2023/10/20 08:51:12;;;;;;;0.90;0.90;;;8.00;99.90;;;;;;5093290;28;20043;-65
2023/10/20 08:53:38;;;;;;;0.75;0.75;;;8.00;99.90;;;;;;5073985;28;20047;-66
2023/10/20 08:56:06;;;;;;;0.40;0.38;;;8.00;99.90;;;;;;5076527;28;20047;-66
2023/10/20 08:58:32;;;;;;;1.42;0.60;;;8.00;99.90;;;;;;5091456;28;20306;-66
2023/10/20 09:00:59;;;;;;;0.65;0.28;;;8.00;99.90;;;;;;5093635;28;20417;-67
2023/10/20 09:03:48;;;;;;;0.45;0.43;;;8.00;99.90;;;;;;5086926;28;20060;-66
2023/10/20 09:06:14;;;;;;;0.25;0.25;;;8.00;99.90;;;;;;5092405;28;20367;-66
2023/10/20 09:08:47;;;;;;;0.40;0.40;;;8.00;99.90;;;;;;5126255;27;20077;-67
2023/10/20 09:11:12;;;;;;;;;;;8.00;99.90;;;;;;5093074;28;20040;-67
2023/10/20 09:13:39;;;;;;;0.25;0.25;;;8.00;99.90;;;;;;5091525;28;20350;-65
2023/10/20 09:16:08;;;;;;;0.30;0.30;;;7.90;99.90;;;;;;5093672;28;20035;-66
2023/10/20 09:18:50;;;;;;;0.10;0.10;;;8.00;99.90;;;;;;5110779;27;20036;-66
2023/10/20 09:21:20;;;;;;;0.20;0.10;;;8.00;99.90;;;;;;5108051;28;20042;-67
2023/10/20 09:23:54;;;;;;;0.55;0.55;;;8.00;99.90;;;;;;5095550;28;20044;-67
2023/10/20 09:26:20;;;;;;;0.45;0.28;;;8.00;99.90;;;;;;5085126;28;20044;-68
2023/10/20 09:28:50;;;;;;;0.10;0.10;;;8.00;99.90;;;;;;5126384;27;20044;-68
2023/10/20 09:31:18;;;;;;;0.50;0.50;;;8.00;99.90;;;;;;5091375;28;20039;-66
2023/10/20 09:33:44;;;;;;;0.20;0.20;;;8.00;99.90;;;;;;5086060;28;20039;-68
2023/10/20 09:36:11;;;;;;;0.20;0.20;;;8.00;99.90;;;;;;5091374;28;20498;-66
2023/10/20 09:38:37;;;;;;;0.20;0.20;;;8.00;99.90;;;;;;5111081;27;20040;-68
2023/10/20 09:41:17;;;;;;;0.20;0.20;;;8.00;99.90;;;;;;5112861;27;20040;-66
2023/10/20 09:44:02;;;;;;;1.35;0.43;;;8.00;99.90;;;;;;5085580;28;20043;-65
2023/10/20 09:46:46;;;;;;;0.35;0.35;;;7.90;99.90;;;;;;5125268;27;20070;-67
2023/10/20 09:49:19;;;;;;;0.28;0.28;;;7.90;99.90;;;;;;5081525;28;20414;-66
2023/10/20 09:51:47;;;;;;;0.20;0.20;;;7.90;99.90;;;;;;5082000;28;20043;-67
2023/10/20 09:54:15;;;;;;;0.20;0.20;;;7.90;99.90;;;;;;5089531;28;20091;-65
2023/10/20 09:56:42;;;;;;;0.10;0.10;;;7.90;99.90;;;;;;5089060;28;20114;-67
2023/10/20 09:59:12;;;;;;;0.20;0.20;;;7.90;99.90;;;;;;5084683;28;20042;-65
2023/10/20 10:01:38;;;;;;;1.17;1.17;;;7.90;99.90;;;;;;5088680;28;20054;-66
2023/10/20 10:04:05;;;;;;;0.20;0.20;;;7.90;99.90;;;;;;5090233;28;20031;-67
2023/10/20 10:06:37;;;;;;;0.10;0.10;;;7.90;99.90;;;;;;5089033;28;20039;-65
2023/10/20 10:09:06;;;;;;;;;;;7.90;99.90;;;;;;5115259;27;20578;-68
2023/10/20 10:11:38;;;;;;;0.17;0.17;;;7.80;99.90;;;;;;5109465;28;20285;-66
2023/10/20 10:14:07;;;;;;;0.00;0.00;;;7.90;99.90;;;;;;5087809;28;20085;-69
2023/10/20 10:16:47;;;;;;;0.25;0.25;;;7.90;99.90;;;;;;5089166;28;20054;-66
2023/10/20 10:19:13;;;;;;;11.30;0.65;;;7.90;99.90;;;;;;5085196;28;20028;-65
2023/10/20 10:21:42;;;;;;;0.20;0.20;;;7.80;99.90;;;;;;5090475;28;20036;-65
2023/10/20 10:24:18;;;;;;;5.93;0.47;;;7.80;99.90;;;;;;5091918;28;20031;-71
2023/10/20 10:26:56;;;;;;;0.10;0.10;;;7.80;99.90;;;;;;5090901;28;20422;-67
2023/10/20 10:29:50;;;;;;;0.30;0.30;;;7.80;99.90;;;;;;5123747;28;20062;-66
2023/10/20 10:32:21;;;;;;;2.92;0.40;;;7.80;99.90;;;;;;5076566;28;20618;-66
2023/10/20 10:34:51;;;;;;;0.68;0.68;;;7.80;99.90;;;;;;5081046;28;20226;-67
2023/10/20 10:37:27;;;;;;;0.47;0.40;;;7.80;99.90;;;;;;5090196;28;20390;-66
2023/10/20 10:39:52;;;;;;;0.20;0.20;;;7.90;99.90;;;;;;5086553;28;20055;-65
2023/10/20 10:42:19;;;;;;;0.70;0.32;;;7.80;99.90;;;;;;5086005;28;20393;-67
2023/10/20 10:44:44;;;;;;;0.93;0.20;;;7.90;99.90;;;;;;5091770;27;20073;-67
2023/10/20 10:47:21;;;;;;;0.22;0.22;;;7.90;99.90;;;;;;5085210;28;20124;-69
2023/10/20 10:49:48;;;;;;;0.30;0.30;;;7.80;99.90;;;;;;5124188;27;20043;-66
2023/10/20 10:52:13;;;;;;;0.20;0.20;;;7.80;99.90;;;;;;5078366;28;20039;-66
2023/10/20 10:54:39;;;;;;;0.17;0.17;;;7.90;99.90;;;;;;5092771;28;20035;-66
2023/10/20 10:57:05;;;;;;;0.13;0.13;;;7.80;99.90;;;;;;5089216;28;20130;-67
2023/10/20 10:59:31;;;;;;;0.35;0.30;;;7.80;99.90;;;;;;5124181;27;20383;-66
2023/10/20 11:02:00;;;;;;;0.98;0.50;;;7.80;99.90;;;;;;5079714;28;20436;-65
2023/10/20 11:04:26;;;;;;;1.10;0.55;;;7.80;99.90;;;;;;5090278;28;20036;-64
2023/10/20 11:06:52;;;;;;;0.30;0.10;;;7.80;99.90;;;;;;5091185;28;20035;-66
2023/10/20 11:09:24;;;;;;;0.43;0.43;;;7.80;99.90;;;;;;5093387;28;20040;-65
2023/10/20 11:11:51;;;;;;;0.15;0.15;;;7.80;99.90;;;;;;5090899;28;20043;-66
2023/10/20 11:14:22;;;;;;;0.10;0.10;;;7.80;99.90;;;;;;5092542;28;20120;-66
2023/10/20 11:16:47;;;;;;;0.10;0.10;;;7.80;99.90;;;;;;5095129;28;20036;-66
2023/10/20 11:19:14;;;;;;;0.22;0.22;;;7.80;99.90;;;;;;5069993;28;20428;-64
2023/10/20 11:21:51;;;;;;;0.10;0.10;;;7.80;99.90;;;;;;5087700;28;20041;-65
2023/10/20 11:24:28;;;;;;;0.65;0.40;;;7.80;99.90;;;;;;5090305;28;20171;-65
2023/10/20 11:26:58;;;;;;;0.17;0.17;;;7.80;99.90;;;;;;5085531;28;20035;-66
2023/10/20 11:29:26;;;;;;;0.10;0.10;;;7.80;99.90;;;;;;5090581;28;20850;-66
2023/10/20 11:31:51;;;;;;;0.98;0.68;;;7.80;99.90;;;;;;5086008;28;20043;-65
2023/10/20 11:34:17;;;;;;;1.10;0.43;;;7.80;99.90;;;;;;5086998;28;20490;-66
2023/10/20 11:36:42;;;;;;;0.20;0.20;;;7.70;99.90;;;;;;5083984;28;20482;-65
2023/10/20 11:39:08;;;;;;;0.10;0.10;;;7.80;99.90;;;;;;5102064;28;20038;-67
2023/10/20 11:41:34;;;;;;;0.20;0.20;;;7.80;99.90;;;;;;5079554;28;20036;-65
2023/10/20 11:43:59;;;;;;;0.20;0.10;;;7.80;99.90;;;;;;5112264;27;20490;-64
2023/10/20 11:46:25;;;;;;;0.45;0.40;;;7.80;99.90;;;;;;5086526;28;20046;-66
2023/10/20 11:48:50;;;;;;;0.10;0.10;;;7.80;99.90;;;;;;5081839;28;20066;-65
2023/10/20 11:51:16;;;;;;;0.10;0.10;;;7.80;99.90;;;;;;5080531;28;20036;-66
2023/10/20 11:53:41;;;;;;;0.10;0.10;;;7.80;99.90;;;;;;5085170;28;20082;-66
2023/10/20 11:56:07;;;;;;;0.10;0.10;;;7.80;99.90;;;;;;5082578;28;20032;-64
2023/10/20 11:58:33;;;;;;;0.20;0.20;;;7.80;99.90;;;;;;5080780;27;20750;-67
2023/10/20 12:00:59;;;;;;;0.03;0.03;;;7.80;99.90;;;;;;5077302;28;20394;-66
2023/10/20 12:03:26;;;;;;;0.40;0.40;;;7.80;99.90;;;;;;5082594;28;20092;-65
2023/10/20 12:05:52;;;;;;;0.43;0.22;;;7.80;99.90;;;;;;5081016;28;20267;-66
2023/10/20 12:08:18;;;;;;;0.10;0.10;;;7.80;99.90;;;;;;5095768;28;20126;-66
2023/10/20 12:10:43;;;;;;;0.10;0.10;;;7.80;99.90;;;;;;5079705;28;20035;-67
2023/10/20 12:13:09;;;;;;;0.30;0.30;;;7.80;99.90;;;;;;5081171;28;20173;-66
2023/10/20 12:15:36;;;;;;;0.38;0.38;;;7.80;99.90;;;;;;5078860;28;20040;-64
2023/10/20 12:18:01;;;;;;;0.13;0.13;;;7.80;99.90;;;;;;5084301;28;20039;-67
2023/10/20 12:20:27;;;;;;;0.30;0.30;;;7.80;99.90;;;;;;5081810;28;20360;-66
2023/10/20 12:22:58;;;;;;;0.17;0.17;;;7.80;99.90;;;;;;5081646;28;20050;-64
2023/10/20 12:25:24;;;;;;;0.10;0.10;;;7.70;99.90;;;;;;5074680;28;20052;-67
2023/10/20 12:27:50;;;;;;;0.10;0.10;;;7.70;99.90;;;;;;5114796;27;20048;-68
2023/10/20 12:30:15;;;;;;;0.10;0.10;;;7.80;99.90;;;;;;5078622;28;20104;-65
2023/10/20 12:32:42;;;;;;;0.10;0.10;;;7.70;99.90;;;;;;5082155;28;20051;-66
2023/10/20 12:35:11;;;;;;;0.10;0.10;;;7.70;99.90;;;;;;5084673;28;20080;-66
2023/10/20 12:37:37;;;;;;;0.10;0.10;;;7.70;99.90;;;;;;5083913;28;20047;-66
2023/10/20 12:40:03;;;;;;;0.03;0.03;;;7.70;99.90;;;;;;5113475;27;20039;-67
2023/10/20 12:42:29;;;;;;;0.03;0.03;;;7.70;99.90;;;;;;5082519;28;20050;-64
2023/10/20 12:44:55;;;;;;;0.13;0.13;;;7.70;99.90;;;;;;5081924;28;20036;-65
2023/10/20 12:47:22;;;;;;;0.10;0.10;;;7.70;99.90;;;;;;5078164;28;20046;-68
2023/10/20 12:49:48;;;;;;;0.10;0.10;;;7.70;99.90;;;;;;5123777;27;20039;-66
2023/10/20 12:52:13;;;;;;;0.10;0.10;;;7.70;99.90;;;;;;5089930;28;20050;-67
2023/10/20 12:54:39;;;;;;;0.75;0.57;;;7.70;99.90;;;;;;5084138;28;20039;-65
2023/10/20 12:57:05;;;;;;;0.10;0.10;;;7.70;99.90;;;;;;5112136;28;20040;-68
2023/10/20 12:59:31;;;;;;;0.10;0.10;;;7.60;99.90;;;;;;5088492;28;20072;-69
2023/10/20 13:01:56;;;;;;;0.00;0.00;;;7.60;99.90;;;;;;5090806;28;20482;-67
2023/10/20 13:04:22;;;;;;;0.20;0.20;;;7.60;99.90;;;;;;5092003;28;20036;-69
2023/10/20 13:06:48;;;;;;;0.10;0.10;;;7.50;99.90;;;;;;5090201;28;20047;-68
2023/10/20 13:09:14;;;;;;;0.10;0.10;;;7.50;99.90;;;;;;5086967;28;20048;-65
2023/10/20 13:11:39;;;;;;;0.10;0.10;;;7.50;99.90;;;;;;5084278;28;20051;-66
2023/10/20 13:14:05;;;;;;;0.10;0.10;;;7.50;99.90;;;;;;5078911;28;20039;-66
2023/10/20 13:16:30;;;;;;;0.10;0.10;;;7.50;99.90;;;;;;5082080;28;20043;-66
2023/10/20 13:18:56;;;;;;;0.13;0.13;;;7.50;99.90;;;;;;5083139;28;20135;-66
2023/10/20 13:21:24;;;;;;;0.10;0.10;;;7.50;99.90;;;;;;5076999;28;20032;-66